Portada
METAR-TAF:

METAR-TAF

Aeropuertos :

Taskent, Uzbekistán

Aeropuerto Internacional de Taskent

latitud: 41-16N, longitud: 069-16E, altitud: 489 m

Observación

El informe se hizo hace 43 minutos, a las 22:30 UTC
Viento 4 kt del este-noreste
Temperatura 3°C
Humedad 65%
Presión 1025 hPa
Visibilidad: 4000 m
humo

METAR: UTTT 172230Z 07004KT 4000 FU NSC 03/M03 Q1025 R08R/CLRD70 NOSIG

Hora: 04:13 (23:13 UTC)

Pronóstico

El informe se hizo hace 6 horas y 13 minutos, a las 17:00 UTC
Pronóstico válido del 17 a las 18 UTC al 18 a las 18 UTC
Viento 8 kt del noreste
Visibilidad: 5000 m
neblina, humo
Temporalmente
del 17 a las 18 UTC al 18 a las 02 UTC
Visibilidad: 2000 m
neblina, humo

TAF: UTTT 171700Z 1718/1818 05008KT 5000 BR FU NSC TEMPO 1718/1802 2000 BR FU

Observaciones y pronósticos meteorológicos de más de 4000 aeropuertos (mensajes METAR y TAF).

Los puntos amarillos y rojos representan las estaciones disponibles.

Ponga el ratón en el punto deseado para ver el nombre de la estación.

Haga clic para ver las observaciones y los pronósticos meteorológicos.

Para cambiar el mapa : haga clic en los botones verdes con una cruz de color negro para hacer un zoom, en el botón verde con un guión para alejar o en las flechas verdes para mapas adyacentes.


METAR-TAF: